sensor_id;sensor_type;location;lat;lon;timestamp;temperature;humidity
22321;DHT22;11328;53.928;18.522;2023-01-28T00:01:41;2.00;99.90
22321;DHT22;11328;53.928;18.522;2023-01-28T00:04:08;2.00;99.90
22321;DHT22;11328;53.928;18.522;2023-01-28T00:06:36;2.00;99.90
22321;DHT22;11328;53.928;18.522;2023-01-28T00:09:03;2.00;99.90
22321;DHT22;11328;53.928;18.522;2023-01-28T00:11:30;2.10;99.90
22321;DHT22;11328;53.928;18.522;2023-01-28T00:13:57;2.10;99.90
22321;DHT22;11328;53.928;18.522;2023-01-28T00:16:26;2.10;99.90
22321;DHT22;11328;53.928;18.522;2023-01-28T00:18:54;2.10;99.90
22321;DHT22;11328;53.928;18.522;2023-01-28T00:21:21;2.20;99.90
22321;DHT22;11328;53.928;18.522;2023-01-28T00:23:54;2.10;99.90
22321;DHT22;11328;53.928;18.522;2023-01-28T00:26:23;2.20;99.90
22321;DHT22;11328;53.928;18.522;2023-01-28T00:28:51;2.10;99.90
22321;DHT22;11328;53.928;18.522;2023-01-28T00:31:23;2.10;99.90
22321;DHT22;11328;53.928;18.522;2023-01-28T00:33:53;2.10;99.90
22321;DHT22;11328;53.928;18.522;2023-01-28T00:36:23;2.10;99.90
22321;DHT22;11328;53.928;18.522;2023-01-28T00:38:58;2.10;99.90
22321;DHT22;11328;53.928;18.522;2023-01-28T00:41:28;2.10;99.90
22321;DHT22;11328;53.928;18.522;2023-01-28T00:43:55;2.00;99.90
22321;DHT22;11328;53.928;18.522;2023-01-28T00:46:23;2.00;99.90
22321;DHT22;11328;53.928;18.522;2023-01-28T00:48:54;2.00;99.90
22321;DHT22;11328;53.928;18.522;2023-01-28T00:51:22;2.00;99.90
22321;DHT22;11328;53.928;18.522;2023-01-28T00:53:49;2.00;99.90
22321;DHT22;11328;53.928;18.522;2023-01-28T00:56:17;2.00;99.90
22321;DHT22;11328;53.928;18.522;2023-01-28T00:58:45;2.00;99.90
22321;DHT22;11328;53.928;18.522;2023-01-28T01:01:15;2.00;99.90
22321;DHT22;11328;53.928;18.522;2023-01-28T01:03:45;2.00;99.90
22321;DHT22;11328;53.928;18.522;2023-01-28T01:06:14;1.90;99.90
22321;DHT22;11328;53.928;18.522;2023-01-28T01:08:42;1.90;99.90
22321;DHT22;11328;53.928;18.522;2023-01-28T01:11:16;2.00;99.90
22321;DHT22;11328;53.928;18.522;2023-01-28T01:13:48;2.00;99.90
22321;DHT22;11328;53.928;18.522;2023-01-28T01:16:29;1.90;99.90
22321;DHT22;11328;53.928;18.522;2023-01-28T01:19:02;1.80;99.90
22321;DHT22;11328;53.928;18.522;2023-01-28T01:21:30;1.80;99.90
22321;DHT22;11328;53.928;18.522;2023-01-28T01:23:57;1.70;99.90
22321;DHT22;11328;53.928;18.522;2023-01-28T01:26:25;1.80;99.90
22321;DHT22;11328;53.928;18.522;2023-01-28T01:28:55;1.80;99.90
22321;DHT22;11328;53.928;18.522;2023-01-28T01:31:22;1.70;99.90
22321;DHT22;11328;53.928;18.522;2023-01-28T01:33:51;1.60;99.90
22321;DHT22;11328;53.928;18.522;2023-01-28T01:36:19;1.60;99.90
22321;DHT22;11328;53.928;18.522;2023-01-28T01:38:52;1.60;99.90
22321;DHT22;11328;53.928;18.522;2023-01-28T01:41:32;1.50;99.90
22321;DHT22;11328;53.928;18.522;2023-01-28T01:44:03;1.50;99.90
22321;DHT22;11328;53.928;18.522;2023-01-28T01:49:25;1.40;99.90
22321;DHT22;11328;53.928;18.522;2023-01-28T01:51:58;1.50;99.90
22321;DHT22;11328;53.928;18.522;2023-01-28T01:54:30;1.50;99.90
22321;DHT22;11328;53.928;18.522;2023-01-28T01:57:00;1.60;99.90
22321;DHT22;11328;53.928;18.522;2023-01-28T01:59:31;1.60;99.90
22321;DHT22;11328;53.928;18.522;2023-01-28T02:02:02;1.70;99.90
22321;DHT22;11328;53.928;18.522;2023-01-28T02:04:39;1.70;99.90
22321;DHT22;11328;53.928;18.522;2023-01-28T02:07:15;1.60;99.90
22321;DHT22;11328;53.928;18.522;2023-01-28T02:09:44;1.60;99.90
22321;DHT22;11328;53.928;18.522;2023-01-28T02:12:15;1.60;99.90
22321;DHT22;11328;53.928;18.522;2023-01-28T02:15:05;1.60;99.90
22321;DHT22;11328;53.928;18.522;2023-01-28T02:17:35;1.60;99.90
22321;DHT22;11328;53.928;18.522;2023-01-28T02:20:12;1.60;99.90
22321;DHT22;11328;53.928;18.522;2023-01-28T02:29:18;1.20;99.90
22321;DHT22;11328;53.928;18.522;2023-01-28T02:32:27;1.10;99.90
22321;DHT22;11328;53.928;18.522;2023-01-28T02:38:30;1.20;99.90
22321;DHT22;11328;53.928;18.522;2023-01-28T02:41:10;1.00;99.90
22321;DHT22;11328;53.928;18.522;2023-01-28T02:43:45;0.80;99.90
22321;DHT22;11328;53.928;18.522;2023-01-28T02:46:21;0.70;99.90
22321;DHT22;11328;53.928;18.522;2023-01-28T02:49:38;0.60;99.90
22321;DHT22;11328;53.928;18.522;2023-01-28T02:56:06;0.40;99.90
22321;DHT22;11328;53.928;18.522;2023-01-28T02:59:10;0.30;99.90
22321;DHT22;11328;53.928;18.522;2023-01-28T03:02:07;0.20;99.90
22321;DHT22;11328;53.928;18.522;2023-01-28T03:05:16;0.10;99.90
22321;DHT22;11328;53.928;18.522;2023-01-28T03:07:52;0.10;99.90
22321;DHT22;11328;53.928;18.522;2023-01-28T03:10:23;0.20;99.90
22321;DHT22;11328;53.928;18.522;2023-01-28T03:12:55;0.30;99.90
22321;DHT22;11328;53.928;18.522;2023-01-28T03:15:46;0.40;99.90
22321;DHT22;11328;53.928;18.522;2023-01-28T03:18:39;0.40;99.90
22321;DHT22;11328;53.928;18.522;2023-01-28T03:21:35;0.40;99.90
22321;DHT22;11328;53.928;18.522;2023-01-28T03:24:31;0.20;99.90
22321;DHT22;11328;53.928;18.522;2023-01-28T03:27:37;0.20;99.90
22321;DHT22;11328;53.928;18.522;2023-01-28T03:30:53;0.10;99.90
22321;DHT22;11328;53.928;18.522;2023-01-28T03:33:45;0.10;99.90
22321;DHT22;11328;53.928;18.522;2023-01-28T03:36:32;0.10;99.90
22321;DHT22;11328;53.928;18.522;2023-01-28T03:39:23;0.00;99.90
22321;DHT22;11328;53.928;18.522;2023-01-28T03:42:08;0.10;99.90
22321;DHT22;11328;53.928;18.522;2023-01-28T03:44:37;0.10;99.90
22321;DHT22;11328;53.928;18.522;2023-01-28T03:47:24;0.20;99.90
22321;DHT22;11328;53.928;18.522;2023-01-28T03:49:55;0.20;99.90
22321;DHT22;11328;53.928;18.522;2023-01-28T03:52:25;0.10;99.90
22321;DHT22;11328;53.928;18.522;2023-01-28T03:54:56;0.10;99.90
22321;DHT22;11328;53.928;18.522;2023-01-28T03:57:25;0.10;99.90
22321;DHT22;11328;53.928;18.522;2023-01-28T03:59:53;0.10;99.90
22321;DHT22;11328;53.928;18.522;2023-01-28T04:02:22;0.30;99.90
22321;DHT22;11328;53.928;18.522;2023-01-28T04:04:49;0.40;99.90
22321;DHT22;11328;53.928;18.522;2023-01-28T04:07:17;0.50;99.90
22321;DHT22;11328;53.928;18.522;2023-01-28T04:09:44;0.40;99.90
22321;DHT22;11328;53.928;18.522;2023-01-28T04:12:11;0.40;99.90
22321;DHT22;11328;53.928;18.522;2023-01-28T04:14:38;0.40;99.90
22321;DHT22;11328;53.928;18.522;2023-01-28T04:17:07;0.40;99.90
22321;DHT22;11328;53.928;18.522;2023-01-28T04:19:36;0.40;99.90
22321;DHT22;11328;53.928;18.522;2023-01-28T04:22:09;0.50;99.90
22321;DHT22;11328;53.928;18.522;2023-01-28T04:24:36;0.40;99.90
22321;DHT22;11328;53.928;18.522;2023-01-28T04:27:04;0.40;99.90
22321;DHT22;11328;53.928;18.522;2023-01-28T04:29:31;0.40;99.90
22321;DHT22;11328;53.928;18.522;2023-01-28T04:31:58;0.40;99.90
22321;DHT22;11328;53.928;18.522;2023-01-28T04:34:25;0.50;99.90
22321;DHT22;11328;53.928;18.522;2023-01-28T04:36:52;0.50;99.90
22321;DHT22;11328;53.928;18.522;2023-01-28T04:39:19;0.70;99.90
22321;DHT22;11328;53.928;18.522;2023-01-28T04:41:46;0.70;99.90
22321;DHT22;11328;53.928;18.522;2023-01-28T04:44:13;0.80;99.90
22321;DHT22;11328;53.928;18.522;2023-01-28T04:46:42;0.90;99.90
22321;DHT22;11328;53.928;18.522;2023-01-28T04:49:09;0.90;99.90
22321;DHT22;11328;53.928;18.522;2023-01-28T04:51:36;0.80;99.90
22321;DHT22;11328;53.928;18.522;2023-01-28T04:54:03;0.80;99.90
22321;DHT22;11328;53.928;18.522;2023-01-28T04:56:31;0.90;99.90
22321;DHT22;11328;53.928;18.522;2023-01-28T04:58:58;0.90;99.90
22321;DHT22;11328;53.928;18.522;2023-01-28T05:01:25;1.00;99.90
22321;DHT22;11328;53.928;18.522;2023-01-28T05:03:53;1.00;99.90
22321;DHT22;11328;53.928;18.522;2023-01-28T05:06:20;1.00;99.90
22321;DHT22;11328;53.928;18.522;2023-01-28T05:08:47;1.00;99.90
22321;DHT22;11328;53.928;18.522;2023-01-28T05:11:15;1.00;99.90
22321;DHT22;11328;53.928;18.522;2023-01-28T05:13:42;1.00;99.90
22321;DHT22;11328;53.928;18.522;2023-01-28T05:16:09;1.00;99.90
22321;DHT22;11328;53.928;18.522;2023-01-28T05:18:36;1.00;99.90
22321;DHT22;11328;53.928;18.522;2023-01-28T05:21:04;0.90;99.90
22321;DHT22;11328;53.928;18.522;2023-01-28T05:23:31;0.80;99.90
22321;DHT22;11328;53.928;18.522;2023-01-28T05:25:58;0.90;99.90
22321;DHT22;11328;53.928;18.522;2023-01-28T05:28:26;0.90;99.90
22321;DHT22;11328;53.928;18.522;2023-01-28T05:30:53;0.90;99.90
22321;DHT22;11328;53.928;18.522;2023-01-28T05:33:20;0.90;99.90
22321;DHT22;11328;53.928;18.522;2023-01-28T05:35:47;0.90;99.90
22321;DHT22;11328;53.928;18.522;2023-01-28T05:38:15;0.90;99.90
22321;DHT22;11328;53.928;18.522;2023-01-28T05:40:42;0.90;99.90
22321;DHT22;11328;53.928;18.522;2023-01-28T05:43:09;1.00;99.90
22321;DHT22;11328;53.928;18.522;2023-01-28T05:45:36;1.00;99.90
22321;DHT22;11328;53.928;18.522;2023-01-28T05:48:04;1.00;99.90
22321;DHT22;11328;53.928;18.522;2023-01-28T05:50:31;1.00;99.90
22321;DHT22;11328;53.928;18.522;2023-01-28T05:52:59;1.00;99.90
22321;DHT22;11328;53.928;18.522;2023-01-28T05:55:26;1.00;99.90
22321;DHT22;11328;53.928;18.522;2023-01-28T05:57:53;1.10;99.90
22321;DHT22;11328;53.928;18.522;2023-01-28T06:00:20;1.10;99.90
22321;DHT22;11328;53.928;18.522;2023-01-28T06:02:53;1.10;99.90
22321;DHT22;11328;53.928;18.522;2023-01-28T06:05:20;1.00;99.90
22321;DHT22;11328;53.928;18.522;2023-01-28T06:07:48;1.00;99.90
22321;DHT22;11328;53.928;18.522;2023-01-28T06:10:16;1.00;99.90
22321;DHT22;11328;53.928;18.522;2023-01-28T06:12:43;1.00;99.90
22321;DHT22;11328;53.928;18.522;2023-01-28T06:15:11;1.00;99.90
22321;DHT22;11328;53.928;18.522;2023-01-28T06:17:38;1.00;99.90
22321;DHT22;11328;53.928;18.522;2023-01-28T06:20:06;1.00;99.90
22321;DHT22;11328;53.928;18.522;2023-01-28T06:22:34;1.00;99.90
22321;DHT22;11328;53.928;18.522;2023-01-28T06:25:02;1.00;99.90
22321;DHT22;11328;53.928;18.522;2023-01-28T06:27:30;1.10;99.90
22321;DHT22;11328;53.928;18.522;2023-01-28T06:29:57;1.10;99.90
22321;DHT22;11328;53.928;18.522;2023-01-28T06:32:24;1.10;99.90
22321;DHT22;11328;53.928;18.522;2023-01-28T06:34:51;1.10;99.90
22321;DHT22;11328;53.928;18.522;2023-01-28T06:37:18;1.10;99.90
22321;DHT22;11328;53.928;18.522;2023-01-28T06:39:45;1.00;99.90
22321;DHT22;11328;53.928;18.522;2023-01-28T06:42:12;1.00;99.90
22321;DHT22;11328;53.928;18.522;2023-01-28T06:44:40;1.00;99.90
22321;DHT22;11328;53.928;18.522;2023-01-28T06:47:06;1.00;99.90
22321;DHT22;11328;53.928;18.522;2023-01-28T06:49:38;0.90;99.90
22321;DHT22;11328;53.928;18.522;2023-01-28T06:52:05;0.90;99.90
22321;DHT22;11328;53.928;18.522;2023-01-28T06:54:32;0.90;99.90
22321;DHT22;11328;53.928;18.522;2023-01-28T06:56:59;1.00;99.90
22321;DHT22;11328;53.928;18.522;2023-01-28T06:59:27;1.00;99.90
22321;DHT22;11328;53.928;18.522;2023-01-28T07:01:54;1.10;99.90
22321;DHT22;11328;53.928;18.522;2023-01-28T07:04:21;1.10;99.90
22321;DHT22;11328;53.928;18.522;2023-01-28T07:06:48;1.20;99.90
22321;DHT22;11328;53.928;18.522;2023-01-28T07:09:15;1.10;99.90
22321;DHT22;11328;53.928;18.522;2023-01-28T07:11:43;1.00;99.90
22321;DHT22;11328;53.928;18.522;2023-01-28T07:14:10;1.10;99.90
22321;DHT22;11328;53.928;18.522;2023-01-28T07:16:36;1.00;99.90
22321;DHT22;11328;53.928;18.522;2023-01-28T07:19:04;1.00;99.90
22321;DHT22;11328;53.928;18.522;2023-01-28T07:21:31;1.00;99.90
22321;DHT22;11328;53.928;18.522;2023-01-28T07:23:58;0.90;99.90
22321;DHT22;11328;53.928;18.522;2023-01-28T07:26:25;0.90;99.90
22321;DHT22;11328;53.928;18.522;2023-01-28T07:28:52;1.10;99.90
22321;DHT22;11328;53.928;18.522;2023-01-28T07:31:19;1.10;99.90
22321;DHT22;11328;53.928;18.522;2023-01-28T07:33:46;1.20;99.90
22321;DHT22;11328;53.928;18.522;2023-01-28T07:36:15;1.10;99.90
22321;DHT22;11328;53.928;18.522;2023-01-28T07:38:42;1.20;99.90
22321;DHT22;11328;53.928;18.522;2023-01-28T07:41:09;1.20;99.90
22321;DHT22;11328;53.928;18.522;2023-01-28T07:43:36;1.20;99.90
22321;DHT22;11328;53.928;18.522;2023-01-28T07:46:03;1.20;99.90
22321;DHT22;11328;53.928;18.522;2023-01-28T07:48:30;1.20;99.90
22321;DHT22;11328;53.928;18.522;2023-01-28T07:50:58;1.30;99.90
22321;DHT22;11328;53.928;18.522;2023-01-28T07:53:25;1.30;99.90
22321;DHT22;11328;53.928;18.522;2023-01-28T07:56:00;1.20;99.90
22321;DHT22;11328;53.928;18.522;2023-01-28T07:58:28;1.20;99.90
22321;DHT22;11328;53.928;18.522;2023-01-28T08:00:56;1.20;99.90
22321;DHT22;11328;53.928;18.522;2023-01-28T08:03:25;1.30;99.90
22321;DHT22;11328;53.928;18.522;2023-01-28T08:05:54;1.30;99.90
22321;DHT22;11328;53.928;18.522;2023-01-28T08:08:23;1.30;99.90
22321;DHT22;11328;53.928;18.522;2023-01-28T08:10:53;1.20;99.90
22321;DHT22;11328;53.928;18.522;2023-01-28T08:13:20;1.20;99.90
22321;DHT22;11328;53.928;18.522;2023-01-28T08:15:47;1.20;99.90
22321;DHT22;11328;53.928;18.522;2023-01-28T08:18:15;1.30;99.90
22321;DHT22;11328;53.928;18.522;2023-01-28T08:20:43;1.40;99.90
22321;DHT22;11328;53.928;18.522;2023-01-28T08:23:17;1.50;99.90
22321;DHT22;11328;53.928;18.522;2023-01-28T08:25:48;1.70;99.90
22321;DHT22;11328;53.928;18.522;2023-01-28T08:28:16;1.80;99.90
22321;DHT22;11328;53.928;18.522;2023-01-28T08:30:44;1.80;99.90
22321;DHT22;11328;53.928;18.522;2023-01-28T08:33:13;2.00;99.90
22321;DHT22;11328;53.928;18.522;2023-01-28T08:35:42;2.10;99.90
22321;DHT22;11328;53.928;18.522;2023-01-28T08:38:13;2.10;99.90
22321;DHT22;11328;53.928;18.522;2023-01-28T08:40:43;2.00;99.90
22321;DHT22;11328;53.928;18.522;2023-01-28T08:43:10;2.10;99.90
22321;DHT22;11328;53.928;18.522;2023-01-28T08:45:38;2.10;99.90
22321;DHT22;11328;53.928;18.522;2023-01-28T08:48:09;2.20;99.90
22321;DHT22;11328;53.928;18.522;2023-01-28T08:50:38;2.30;99.90
22321;DHT22;11328;53.928;18.522;2023-01-28T08:53:10;2.30;99.90
22321;DHT22;11328;53.928;18.522;2023-01-28T08:55:42;2.30;99.90
22321;DHT22;11328;53.928;18.522;2023-01-28T08:58:12;2.20;99.90
22321;DHT22;11328;53.928;18.522;2023-01-28T09:00:42;2.20;99.90
22321;DHT22;11328;53.928;18.522;2023-01-28T09:03:10;2.20;99.90
22321;DHT22;11328;53.928;18.522;2023-01-28T09:05:38;2.30;99.90
22321;DHT22;11328;53.928;18.522;2023-01-28T09:08:08;2.40;99.90
22321;DHT22;11328;53.928;18.522;2023-01-28T09:10:38;2.50;99.90
22321;DHT22;11328;53.928;18.522;2023-01-28T09:13:12;2.70;99.90
22321;DHT22;11328;53.928;18.522;2023-01-28T09:15:41;2.80;99.90
22321;DHT22;11328;53.928;18.522;2023-01-28T09:18:09;2.90;99.90
22321;DHT22;11328;53.928;18.522;2023-01-28T09:20:38;2.90;99.90
22321;DHT22;11328;53.928;18.522;2023-01-28T09:23:06;2.80;99.90
22321;DHT22;11328;53.928;18.522;2023-01-28T09:25:34;2.70;99.90
22321;DHT22;11328;53.928;18.522;2023-01-28T09:28:05;2.50;99.90
22321;DHT22;11328;53.928;18.522;2023-01-28T09:30:32;2.50;99.90
22321;DHT22;11328;53.928;18.522;2023-01-28T09:33:03;2.50;99.90
22321;DHT22;11328;53.928;18.522;2023-01-28T09:35:31;2.40;99.90
22321;DHT22;11328;53.928;18.522;2023-01-28T09:37:59;2.40;99.90
22321;DHT22;11328;53.928;18.522;2023-01-28T09:40:38;2.50;99.90
22321;DHT22;11328;53.928;18.522;2023-01-28T09:46:00;2.60;99.90
22321;DHT22;11328;53.928;18.522;2023-01-28T09:48:33;2.60;99.90
22321;DHT22;11328;53.928;18.522;2023-01-28T09:51:12;2.60;99.90
22321;DHT22;11328;53.928;18.522;2023-01-28T09:57:06;2.50;99.90
22321;DHT22;11328;53.928;18.522;2023-01-28T09:59:39;2.40;99.90
22321;DHT22;11328;53.928;18.522;2023-01-28T10:05:16;2.30;99.90
22321;DHT22;11328;53.928;18.522;2023-01-28T10:16:36;2.30;99.90
22321;DHT22;11328;53.928;18.522;2023-01-28T10:19:24;2.40;99.90
22321;DHT22;11328;53.928;18.522;2023-01-28T10:22:02;2.50;99.90
22321;DHT22;11328;53.928;18.522;2023-01-28T10:24:36;2.30;99.90
22321;DHT22;11328;53.928;18.522;2023-01-28T10:27:19;2.30;99.90
22321;DHT22;11328;53.928;18.522;2023-01-28T10:29:50;2.30;99.90
22321;DHT22;11328;53.928;18.522;2023-01-28T10:32:31;2.20;99.90
22321;DHT22;11328;53.928;18.522;2023-01-28T10:35:02;2.30;99.90
22321;DHT22;11328;53.928;18.522;2023-01-28T10:37:33;2.30;99.90
22321;DHT22;11328;53.928;18.522;2023-01-28T10:40:03;2.20;99.90
22321;DHT22;11328;53.928;18.522;2023-01-28T10:42:36;2.10;99.90
22321;DHT22;11328;53.928;18.522;2023-01-28T10:48:29;2.20;99.90
22321;DHT22;11328;53.928;18.522;2023-01-28T10:51:01;2.20;99.90
22321;DHT22;11328;53.928;18.522;2023-01-28T10:53:41;2.20;99.90
22321;DHT22;11328;53.928;18.522;2023-01-28T10:56:13;2.20;99.90
22321;DHT22;11328;53.928;18.522;2023-01-28T10:59:03;2.20;99.90
22321;DHT22;11328;53.928;18.522;2023-01-28T11:02:04;2.10;99.90
22321;DHT22;11328;53.928;18.522;2023-01-28T11:08:23;2.10;99.90
22321;DHT22;11328;53.928;18.522;2023-01-28T11:10:53;2.10;99.90
22321;DHT22;11328;53.928;18.522;2023-01-28T11:16:17;2.20;99.90
22321;DHT22;11328;53.928;18.522;2023-01-28T11:19:01;2.30;99.90
22321;DHT22;11328;53.928;18.522;2023-01-28T11:21:34;2.30;99.90
22321;DHT22;11328;53.928;18.522;2023-01-28T11:24:04;2.30;99.90
22321;DHT22;11328;53.928;18.522;2023-01-28T11:26:44;2.40;99.90
22321;DHT22;11328;53.928;18.522;2023-01-28T11:29:30;2.40;99.90
22321;DHT22;11328;53.928;18.522;2023-01-28T11:31:59;2.50;99.90
22321;DHT22;11328;53.928;18.522;2023-01-28T11:34:29;2.50;99.90
22321;DHT22;11328;53.928;18.522;2023-01-28T11:37:03;2.60;99.90
22321;DHT22;11328;53.928;18.522;2023-01-28T11:39:38;2.80;99.90
22321;DHT22;11328;53.928;18.522;2023-01-28T11:42:19;2.80;99.90
22321;DHT22;11328;53.928;18.522;2023-01-28T11:44:48;2.70;99.90
22321;DHT22;11328;53.928;18.522;2023-01-28T11:50:24;2.70;99.90
22321;DHT22;11328;53.928;18.522;2023-01-28T12:04:52;2.40;99.90
22321;DHT22;11328;53.928;18.522;2023-01-28T12:16:23;2.40;99.90
22321;DHT22;11328;53.928;18.522;2023-01-28T12:22:01;2.50;99.90
22321;DHT22;11328;53.928;18.522;2023-01-28T12:31:02;2.60;99.90
22321;DHT22;11328;53.928;18.522;2023-01-28T12:33:47;2.50;99.90
22321;DHT22;11328;53.928;18.522;2023-01-28T12:39:38;2.60;99.90
22321;DHT22;11328;53.928;18.522;2023-01-28T12:48:03;2.60;99.90
22321;DHT22;11328;53.928;18.522;2023-01-28T12:50:51;2.60;99.90
22321;DHT22;11328;53.928;18.522;2023-01-28T12:53:43;2.60;99.90
22321;DHT22;11328;53.928;18.522;2023-01-28T12:56:18;2.60;99.90
22321;DHT22;11328;53.928;18.522;2023-01-28T12:59:03;2.60;99.90
22321;DHT22;11328;53.928;18.522;2023-01-28T13:04:31;2.40;99.90
22321;DHT22;11328;53.928;18.522;2023-01-28T13:07:20;2.50;99.90
22321;DHT22;11328;53.928;18.522;2023-01-28T13:09:59;2.40;99.90
22321;DHT22;11328;53.928;18.522;2023-01-28T13:12:31;2.40;99.90
22321;DHT22;11328;53.928;18.522;2023-01-28T13:14:59;2.50;99.90
22321;DHT22;11328;53.928;18.522;2023-01-28T13:17:30;2.50;99.90
22321;DHT22;11328;53.928;18.522;2023-01-28T13:19:58;2.50;99.90
22321;DHT22;11328;53.928;18.522;2023-01-28T13:22:33;2.40;99.90
22321;DHT22;11328;53.928;18.522;2023-01-28T13:25:22;2.40;99.90
22321;DHT22;11328;53.928;18.522;2023-01-28T13:27:56;2.40;99.90
22321;DHT22;11328;53.928;18.522;2023-01-28T13:30:45;2.40;99.90
22321;DHT22;11328;53.928;18.522;2023-01-28T13:33:33;2.40;99.90
22321;DHT22;11328;53.928;18.522;2023-01-28T13:36:25;2.50;99.90
22321;DHT22;11328;53.928;18.522;2023-01-28T13:41:44;2.50;99.90
22321;DHT22;11328;53.928;18.522;2023-01-28T13:44:19;2.50;99.90
22321;DHT22;11328;53.928;18.522;2023-01-28T13:50:05;2.60;99.90
22321;DHT22;11328;53.928;18.522;2023-01-28T13:52:49;2.50;99.90
22321;DHT22;11328;53.928;18.522;2023-01-28T13:55:28;2.50;99.90
22321;DHT22;11328;53.928;18.522;2023-01-28T14:01:07;2.40;99.90
22321;DHT22;11328;53.928;18.522;2023-01-28T14:04:20;2.30;99.90
22321;DHT22;11328;53.928;18.522;2023-01-28T14:16:23;2.30;99.90
22321;DHT22;11328;53.928;18.522;2023-01-28T14:19:11;2.30;99.90
22321;DHT22;11328;53.928;18.522;2023-01-28T14:21:40;2.30;99.90
22321;DHT22;11328;53.928;18.522;2023-01-28T14:24:15;2.30;99.90
22321;DHT22;11328;53.928;18.522;2023-01-28T14:32:48;2.30;99.90
22321;DHT22;11328;53.928;18.522;2023-01-28T14:35:31;2.20;99.90
22321;DHT22;11328;53.928;18.522;2023-01-28T14:38:08;2.20;99.90
22321;DHT22;11328;53.928;18.522;2023-01-28T14:40:41;2.10;99.90
22321;DHT22;11328;53.928;18.522;2023-01-28T14:43:15;2.10;99.90
22321;DHT22;11328;53.928;18.522;2023-01-28T14:45:58;2.10;99.90
22321;DHT22;11328;53.928;18.522;2023-01-28T14:51:39;2.10;99.90
22321;DHT22;11328;53.928;18.522;2023-01-28T14:57:52;2.00;99.90
22321;DHT22;11328;53.928;18.522;2023-01-28T15:00:31;2.00;99.90
22321;DHT22;11328;53.928;18.522;2023-01-28T15:03:06;1.90;99.90
22321;DHT22;11328;53.928;18.522;2023-01-28T15:06:14;1.90;99.90
22321;DHT22;11328;53.928;18.522;2023-01-28T15:08:42;1.80;99.90
22321;DHT22;11328;53.928;18.522;2023-01-28T15:11:13;1.70;99.90
22321;DHT22;11328;53.928;18.522;2023-01-28T15:13:46;1.70;99.90
22321;DHT22;11328;53.928;18.522;2023-01-28T15:16:24;1.70;99.90
22321;DHT22;11328;53.928;18.522;2023-01-28T15:19:01;1.70;99.90
22321;DHT22;11328;53.928;18.522;2023-01-28T15:21:29;1.60;99.90
22321;DHT22;11328;53.928;18.522;2023-01-28T15:23:59;1.60;99.90
22321;DHT22;11328;53.928;18.522;2023-01-28T15:26:29;1.50;99.90
22321;DHT22;11328;53.928;18.522;2023-01-28T15:28:58;1.40;99.90
22321;DHT22;11328;53.928;18.522;2023-01-28T15:31:29;1.40;99.90
22321;DHT22;11328;53.928;18.522;2023-01-28T15:34:09;1.40;99.90
22321;DHT22;11328;53.928;18.522;2023-01-28T15:36:41;1.40;99.90
22321;DHT22;11328;53.928;18.522;2023-01-28T15:39:14;1.40;99.90
22321;DHT22;11328;53.928;18.522;2023-01-28T15:41:44;1.30;99.90
22321;DHT22;11328;53.928;18.522;2023-01-28T15:44:26;1.30;99.90
22321;DHT22;11328;53.928;18.522;2023-01-28T15:46:58;1.30;99.90
22321;DHT22;11328;53.928;18.522;2023-01-28T15:49:34;1.20;99.90
22321;DHT22;11328;53.928;18.522;2023-01-28T15:52:03;1.30;99.90
22321;DHT22;11328;53.928;18.522;2023-01-28T15:54:31;1.30;99.90
22321;DHT22;11328;53.928;18.522;2023-01-28T15:57:18;1.30;99.90
22321;DHT22;11328;53.928;18.522;2023-01-28T16:02:42;1.20;99.90
22321;DHT22;11328;53.928;18.522;2023-01-28T16:08:02;1.30;99.90
22321;DHT22;11328;53.928;18.522;2023-01-28T16:10:33;1.30;99.90
22321;DHT22;11328;53.928;18.522;2023-01-28T16:13:10;1.30;99.90
22321;DHT22;11328;53.928;18.522;2023-01-28T16:15:46;1.20;99.90
22321;DHT22;11328;53.928;18.522;2023-01-28T16:19:14;1.30;99.90
22321;DHT22;11328;53.928;18.522;2023-01-28T16:21:53;1.20;99.90
22321;DHT22;11328;53.928;18.522;2023-01-28T16:24:28;1.30;99.90
22321;DHT22;11328;53.928;18.522;2023-01-28T16:27:19;1.20;99.90
22321;DHT22;11328;53.928;18.522;2023-01-28T16:29:48;1.10;99.90
22321;DHT22;11328;53.928;18.522;2023-01-28T16:32:38;1.10;99.90
22321;DHT22;11328;53.928;18.522;2023-01-28T16:35:23;1.10;99.90
22321;DHT22;11328;53.928;18.522;2023-01-28T16:38:08;1.10;99.90
22321;DHT22;11328;53.928;18.522;2023-01-28T16:40:37;1.00;99.90
22321;DHT22;11328;53.928;18.522;2023-01-28T16:43:04;1.00;99.90
22321;DHT22;11328;53.928;18.522;2023-01-28T16:45:35;0.90;99.90
22321;DHT22;11328;53.928;18.522;2023-01-28T16:48:04;0.90;99.90
22321;DHT22;11328;53.928;18.522;2023-01-28T16:50:31;1.00;99.90
22321;DHT22;11328;53.928;18.522;2023-01-28T16:53:02;1.00;99.90
22321;DHT22;11328;53.928;18.522;2023-01-28T16:55:30;1.00;99.90
22321;DHT22;11328;53.928;18.522;2023-01-28T16:57:59;0.90;99.90
22321;DHT22;11328;53.928;18.522;2023-01-28T17:00:26;0.90;99.90
22321;DHT22;11328;53.928;18.522;2023-01-28T17:02:56;0.90;99.90
22321;DHT22;11328;53.928;18.522;2023-01-28T17:05:24;0.90;99.90
22321;DHT22;11328;53.928;18.522;2023-01-28T17:07:52;0.90;99.90
22321;DHT22;11328;53.928;18.522;2023-01-28T17:10:25;0.90;99.90
22321;DHT22;11328;53.928;18.522;2023-01-28T17:12:52;0.90;99.90
22321;DHT22;11328;53.928;18.522;2023-01-28T17:15:20;0.90;99.90
22321;DHT22;11328;53.928;18.522;2023-01-28T17:17:48;0.90;99.90
22321;DHT22;11328;53.928;18.522;2023-01-28T17:20:16;0.90;99.90
22321;DHT22;11328;53.928;18.522;2023-01-28T17:22:43;1.00;99.90
22321;DHT22;11328;53.928;18.522;2023-01-28T17:25:11;0.90;99.90
22321;DHT22;11328;53.928;18.522;2023-01-28T17:27:40;0.90;99.90
22321;DHT22;11328;53.928;18.522;2023-01-28T17:30:08;0.90;99.90
22321;DHT22;11328;53.928;18.522;2023-01-28T17:32:38;0.80;99.90
22321;DHT22;11328;53.928;18.522;2023-01-28T17:35:05;0.80;99.90
22321;DHT22;11328;53.928;18.522;2023-01-28T17:37:37;0.80;99.90
22321;DHT22;11328;53.928;18.522;2023-01-28T17:40:05;0.80;99.90
22321;DHT22;11328;53.928;18.522;2023-01-28T17:42:33;0.80;99.90
22321;DHT22;11328;53.928;18.522;2023-01-28T17:45:00;0.70;99.90
22321;DHT22;11328;53.928;18.522;2023-01-28T17:47:29;0.60;99.90
22321;DHT22;11328;53.928;18.522;2023-01-28T17:49:57;0.60;99.90
22321;DHT22;11328;53.928;18.522;2023-01-28T17:52:24;0.70;99.90
22321;DHT22;11328;53.928;18.522;2023-01-28T17:54:51;0.60;99.90
22321;DHT22;11328;53.928;18.522;2023-01-28T17:57:19;0.70;99.90
22321;DHT22;11328;53.928;18.522;2023-01-28T17:59:46;0.60;99.90
22321;DHT22;11328;53.928;18.522;2023-01-28T18:02:14;0.70;99.90
22321;DHT22;11328;53.928;18.522;2023-01-28T18:04:42;0.60;99.90
22321;DHT22;11328;53.928;18.522;2023-01-28T18:07:09;0.60;99.90
22321;DHT22;11328;53.928;18.522;2023-01-28T18:09:42;0.70;99.90
22321;DHT22;11328;53.928;18.522;2023-01-28T18:12:13;0.70;99.90